createdAt,value
2019-03-29T00:01:51.231Z,101959.82
2019-03-29T00:04:23.784Z,101962.88
2019-03-29T00:06:56.333Z,101966.38
2019-03-29T00:09:28.862Z,101960.31
2019-03-29T00:12:01.283Z,101963.38
2019-03-29T00:14:33.723Z,101963.38
2019-03-29T00:17:06.238Z,101949.89
2019-03-29T00:19:38.836Z,101955.15
2019-03-29T00:22:11.263Z,101951.28
2019-03-29T00:24:43.882Z,101953.15
2019-03-29T00:27:16.427Z,101954.53
2019-03-29T00:29:49.295Z,101955.51
2019-03-29T00:32:21.780Z,101956.01
2019-03-29T00:34:54.917Z,101946.07
2019-03-29T00:37:27.475Z,101949.19
2019-03-29T00:39:59.930Z,101950.12
2019-03-29T00:42:32.335Z,101948.44
2019-03-29T00:45:05.224Z,101949.32
2019-03-29T00:47:37.681Z,101949.33
2019-03-29T00:50:10.818Z,101947.58
2019-03-29T00:52:43.553Z,101951.94
2019-03-29T00:55:16.530Z,101945.39
2019-03-29T00:57:49.358Z,101943.64
2019-03-29T01:00:21.847Z,101940.59
2019-03-29T01:02:54.258Z,101936.67
2019-03-29T01:05:26.658Z,101931.47
2019-03-29T01:08:07.560Z,101935.45
2019-03-29T01:10:33.671Z,101933.27
2019-03-29T01:13:06.243Z,101932.45
2019-03-29T01:15:38.708Z,101935.55
2019-03-29T01:18:11.819Z,101930.36
2019-03-29T01:20:44.237Z,101934.73
2019-03-29T01:23:16.836Z,101926.92
2019-03-29T01:25:49.231Z,101927.36
2019-03-29T01:28:21.731Z,101926.53
2019-03-29T01:30:54.111Z,101919.98
2019-03-29T01:33:26.554Z,101921.26
2019-03-29T01:35:59.192Z,101922.56
2019-03-29T01:38:31.656Z,101924.31
2019-03-29T01:41:04.435Z,101921.73
2019-03-29T01:48:41.737Z,101921.73
2019-03-29T01:51:14.134Z,101919.59
2019-03-29T01:53:47.166Z,101923.09
2019-03-29T01:56:19.613Z,101913.93
2019-03-29T01:58:52.913Z,101915.23
2019-03-29T02:01:29.091Z,101915.67
2019-03-29T02:04:05.760Z,101916.55
2019-03-29T02:06:37.327Z,101916.59
2019-03-29T02:09:10.087Z,101913.09
2019-03-29T02:11:42.604Z,101912.66
2019-03-29T02:14:14.988Z,101916.59
2019-03-29T02:16:47.515Z,101917.02
2019-03-29T02:19:20.020Z,101921.39
2019-03-29T02:21:53.080Z,101913.98
2019-03-29T02:24:25.833Z,101906.59
2019-03-29T02:26:58.522Z,101911.84
2019-03-29T02:29:31.338Z,101907.05
2019-03-29T02:32:03.723Z,101905.73
2019-03-29T02:34:36.139Z,101906.60
2019-03-29T02:37:08.510Z,101902.68
2019-03-29T02:39:41.287Z,101903.12
2019-03-29T02:42:14.757Z,101903.16
2019-03-29T02:44:47.327Z,101903.16
2019-03-29T02:47:21.528Z,101907.08
2019-03-29T02:49:54.172Z,101904.90
2019-03-29T02:52:26.544Z,101901.37
2019-03-29T02:54:59.083Z,101898.31
2019-03-29T02:57:31.480Z,101898.76
2019-03-29T03:00:04.745Z,101895.73
2019-03-29T03:02:37.226Z,101896.17
2019-03-29T03:05:10.589Z,101895.75
2019-03-29T03:07:43.065Z,101894.48
2019-03-29T03:10:15.786Z,101894.48
2019-03-29T03:12:48.266Z,101897.57
2019-03-29T03:15:20.754Z,101898.02
2019-03-29T03:17:53.156Z,101892.38
2019-03-29T03:20:25.680Z,101898.09
2019-03-29T03:22:58.063Z,101896.34
2019-03-29T03:25:30.607Z,101899.88
2019-03-29T03:28:03.227Z,101899.47
2019-03-29T03:30:35.766Z,101895.11
2019-03-29T03:33:08.437Z,101894.72
2019-03-29T03:35:40.914Z,101894.28
2019-03-29T03:38:13.347Z,101902.16
2019-03-29T03:40:46.507Z,101900.45
2019-03-29T03:43:19.000Z,101902.23
2019-03-29T03:45:51.417Z,101901.78
2019-03-29T03:48:23.865Z,101901.38
2019-03-29T03:50:56.279Z,101900.08
2019-03-29T03:53:28.929Z,101894.41
2019-03-29T03:56:02.422Z,101898.80
2019-03-29T03:58:35.430Z,101900.08
2019-03-29T04:01:07.941Z,101898.77
2019-03-29T04:03:40.412Z,101892.67
2019-03-29T04:06:12.811Z,101890.92
2019-03-29T04:08:45.384Z,101887.44
2019-03-29T04:11:17.923Z,101888.75
2019-03-29T04:13:50.388Z,101884.39
2019-03-29T04:16:22.889Z,101883.95
2019-03-29T04:18:55.375Z,101879.60
2019-03-29T04:21:27.870Z,101882.65
2019-03-29T04:24:00.380Z,101883.08
2019-03-29T04:26:32.806Z,101889.66
2019-03-29T04:29:05.561Z,101879.19
2019-03-29T04:31:37.925Z,101883.12
2019-03-29T04:34:10.376Z,101887.50
2019-03-29T04:36:42.780Z,101883.12
2019-03-29T04:39:15.210Z,101886.16
2019-03-29T04:41:48.622Z,101883.98
2019-03-29T04:44:21.268Z,101884.02
2019-03-29T04:46:53.757Z,101889.24
2019-03-29T04:49:26.261Z,101890.14
2019-03-29T04:51:58.837Z,101892.78
2019-03-29T04:54:31.371Z,101891.06
2019-03-29T04:57:03.775Z,101894.14
2019-03-29T04:59:36.704Z,101894.16
2019-03-29T05:02:09.156Z,101895.92
2019-03-29T05:04:41.592Z,101899.42
2019-03-29T05:07:14.006Z,101903.36
2019-03-29T05:09:46.425Z,101902.92
2019-03-29T05:12:18.982Z,101898.57
2019-03-29T05:14:51.514Z,101908.16
2019-03-29T05:17:24.101Z,101901.59
2019-03-29T05:19:56.628Z,101898.12
2019-03-29T05:22:29.222Z,101897.22
2019-03-29T05:25:01.655Z,101900.71
2019-03-29T05:27:34.098Z,101901.99
2019-03-29T05:30:07.018Z,101899.82
2019-03-29T05:32:39.451Z,101900.69
2019-03-29T05:35:11.983Z,101900.25
2019-03-29T05:37:44.554Z,101903.30
2019-03-29T05:40:17.099Z,101897.20
2019-03-29T05:42:50.742Z,101905.47
2019-03-29T05:45:23.201Z,101901.55
2019-03-29T05:47:55.660Z,101901.13
2019-03-29T05:50:28.076Z,101900.69
2019-03-29T05:53:00.559Z,101905.05
2019-03-29T05:55:33.259Z,101901.13
2019-03-29T05:58:06.087Z,101899.80
2019-03-29T06:00:38.673Z,101900.24
2019-03-29T06:03:11.131Z,101898.03
2019-03-29T06:05:43.525Z,101894.13
2019-03-29T06:08:16.187Z,101895.83
2019-03-29T06:10:49.766Z,101894.53
2019-03-29T06:13:22.385Z,101901.91
2019-03-29T06:15:55.260Z,101903.18
2019-03-29T06:18:27.889Z,101899.70
2019-03-29T06:21:00.309Z,101895.31
2019-03-29T06:23:32.877Z,101895.28
2019-03-29T06:26:05.292Z,101893.08
2019-03-29T06:28:37.769Z,101896.52
2019-03-29T06:31:10.256Z,101891.23
2019-03-29T06:33:44.517Z,101892.94
2019-03-29T06:36:18.500Z,101891.55
2019-03-29T06:38:53.071Z,101887.55
2019-03-29T06:41:25.549Z,101886.59
2019-03-29T06:43:59.168Z,101886.49
2019-03-29T06:46:31.692Z,101889.89
2019-03-29T06:49:04.142Z,101888.48
2019-03-29T06:51:36.735Z,101881.88
2019-03-29T06:54:09.309Z,101881.34
2019-03-29T06:56:41.783Z,101884.30
2019-03-29T06:59:14.817Z,101884.20
2019-03-29T07:01:47.271Z,101880.65
2019-03-29T07:04:19.754Z,101880.57
2019-03-29T07:06:52.182Z,101878.72
2019-03-29T07:09:24.934Z,101881.71
2019-03-29T07:11:57.478Z,101885.13
2019-03-29T07:14:30.043Z,101883.27
2019-03-29T07:17:02.525Z,101885.80
2019-03-29T07:19:34.979Z,101881.73
2019-03-29T07:22:07.446Z,101880.77
2019-03-29T07:24:40.067Z,101879.33
2019-03-29T07:27:12.513Z,101872.23
2019-03-29T07:29:45.429Z,101868.17
2019-03-29T07:32:17.922Z,101869.33
2019-03-29T07:34:50.478Z,101868.34
2019-03-29T07:37:22.973Z,101871.23
2019-03-29T07:39:55.571Z,101866.27
2019-03-29T07:42:27.977Z,101869.63
2019-03-29T07:45:00.436Z,101862.02
2019-03-29T07:47:32.897Z,101863.20
2019-03-29T07:50:05.689Z,101862.59
2019-03-29T07:52:38.110Z,101862.41
2019-03-29T07:55:11.009Z,101859.23
2019-03-29T07:57:43.559Z,101858.17
2019-03-29T08:00:16.704Z,101856.71
2019-03-29T08:02:49.303Z,101856.59
2019-03-29T08:05:21.697Z,101853.79
2019-03-29T08:07:54.171Z,101852.73
2019-03-29T08:10:30.945Z,101851.16
2019-03-29T08:13:00.899Z,101840.92
2019-03-29T08:15:33.417Z,101844.23
2019-03-29T08:18:06.091Z,101845.77
2019-03-29T08:20:43.557Z,101846.86
2019-03-29T08:23:12.712Z,101842.27
2019-03-29T08:25:45.151Z,101834.66
2019-03-29T08:28:17.800Z,101832.31
2019-03-29T08:30:50.334Z,101830.79
2019-03-29T08:33:23.043Z,101831.52
2019-03-29T08:35:55.586Z,101836.55
2019-03-29T08:38:28.045Z,101841.66
2019-03-29T08:41:00.528Z,101831.88
2019-03-29T08:43:33.171Z,101834.80
2019-03-29T08:46:05.590Z,101830.80
2019-03-29T08:48:38.068Z,101834.63
2019-03-29T08:51:10.537Z,101825.22
2019-03-29T08:53:43.210Z,101831.61
2019-03-29T08:56:15.838Z,101823.52
2019-03-29T08:58:48.712Z,101823.74
2019-03-29T09:01:21.175Z,101831.45
2019-03-29T09:04:04.786Z,101824.67
2019-03-29T09:06:30.135Z,101820.96
2019-03-29T09:09:03.409Z,101820.37
2019-03-29T09:11:38.770Z,101814.03
2019-03-29T09:14:10.142Z,101809.91
2019-03-29T09:16:42.534Z,101816.70
2019-03-29T09:19:15.069Z,101809.37
2019-03-29T09:21:47.485Z,101808.78
2019-03-29T09:24:22.378Z,101804.69
2019-03-29T09:26:54.028Z,101812.87
2019-03-29T09:29:26.569Z,101810.91
2019-03-29T09:32:00.133Z,101812.09
2019-03-29T09:34:32.552Z,101807.04
2019-03-29T09:37:05.001Z,101807.38
2019-03-29T09:39:37.449Z,101792.75
2019-03-29T09:42:10.825Z,101792.94
2019-03-29T09:44:43.485Z,101787.47
2019-03-29T09:47:15.926Z,101784.25
2019-03-29T09:49:48.397Z,101785.34
2019-03-29T09:52:21.299Z,101781.22
2019-03-29T09:54:54.104Z,101775.28
2019-03-29T09:57:37.148Z,101782.10
2019-03-29T10:00:01.359Z,101777.19
2019-03-29T10:02:33.986Z,101774.39
2019-03-29T10:05:06.602Z,101772.41
2019-03-29T10:07:39.128Z,101767.83
2019-03-29T10:10:11.893Z,101761.02
2019-03-29T10:12:44.319Z,101762.45
2019-03-29T10:15:16.984Z,101759.14
2019-03-29T10:17:49.454Z,101754.43
2019-03-29T10:20:21.932Z,101750.25
2019-03-29T10:22:54.336Z,101751.30
2019-03-29T10:25:26.736Z,101747.57
2019-03-29T10:27:59.221Z,101744.34
2019-03-29T10:30:46.603Z,101738.45
2019-03-29T10:33:18.304Z,101739.09
2019-03-29T10:35:52.712Z,101742.52
2019-03-29T10:38:24.890Z,101735.00
2019-03-29T10:40:57.288Z,101735.81
2019-03-29T10:43:29.823Z,101733.90
2019-03-29T10:46:02.272Z,101728.37
2019-03-29T10:48:34.750Z,101728.92
2019-03-29T10:51:08.432Z,101722.89
2019-03-29T10:53:41.326Z,101722.66
2019-03-29T10:56:13.780Z,101727.76
2019-03-29T10:58:46.240Z,101716.53
2019-03-29T11:01:18.993Z,101714.66
2019-03-29T11:03:51.534Z,101717.30
2019-03-29T11:06:24.181Z,101707.99
2019-03-29T11:08:56.671Z,101710.04
2019-03-29T11:11:29.203Z,101712.03
2019-03-29T11:14:01.714Z,101711.87
2019-03-29T11:16:34.442Z,101708.12
2019-03-29T11:19:06.892Z,101700.55
2019-03-29T11:21:39.337Z,101707.16
2019-03-29T11:24:11.981Z,101700.55
2019-03-29T11:26:44.514Z,101706.41
2019-03-29T11:29:17.117Z,101705.98
2019-03-29T11:31:49.740Z,101713.07
2019-03-29T11:34:22.201Z,101699.89
2019-03-29T11:36:54.644Z,101696.86
2019-03-29T11:39:27.551Z,101699.88
2019-03-29T11:42:03.275Z,101689.20
2019-03-29T11:44:34.799Z,101683.02
2019-03-29T11:47:07.635Z,101693.91
2019-03-29T11:49:40.160Z,101689.84
2019-03-29T11:52:12.633Z,101686.32
2019-03-29T11:54:45.170Z,101678.38
2019-03-29T11:57:17.670Z,101673.41
2019-03-29T11:59:50.747Z,101678.86
2019-03-29T12:02:31.115Z,101665.21
2019-03-29T12:04:58.280Z,101665.61
2019-03-29T12:07:30.842Z,101651.34
2019-03-29T12:10:03.695Z,101653.98
2019-03-29T12:12:36.501Z,101653.09
2019-03-29T12:15:10.273Z,101645.50
2019-03-29T12:17:42.829Z,101636.27
2019-03-29T12:20:15.354Z,101630.22
2019-03-29T12:22:47.875Z,101634.08
2019-03-29T12:25:21.098Z,101637.43
2019-03-29T12:27:53.747Z,101635.48
2019-03-29T12:30:31.723Z,101620.42
2019-03-29T12:33:01.264Z,101632.59
2019-03-29T12:35:33.975Z,101636.52
2019-03-29T12:38:06.825Z,101618.41
2019-03-29T12:40:39.569Z,101618.34
2019-03-29T12:43:12.787Z,101615.12
2019-03-29T12:45:45.503Z,101604.84
2019-03-29T12:48:18.094Z,101592.97
2019-03-29T12:50:50.534Z,101590.25
2019-03-29T12:53:23.001Z,101595.02
2019-03-29T12:55:55.589Z,101594.23
2019-03-29T12:58:28.119Z,101596.42
2019-03-29T13:01:00.845Z,101587.53
2019-03-29T13:03:33.321Z,101589.62
2019-03-29T13:06:05.844Z,101581.99
2019-03-29T13:08:38.361Z,101584.58
2019-03-29T13:11:11.086Z,101578.87
2019-03-29T13:13:43.538Z,101573.86
2019-03-29T13:16:16.087Z,101567.56
2019-03-29T13:18:48.548Z,101558.10
2019-03-29T13:21:21.098Z,101562.41
2019-03-29T13:23:53.571Z,101553.02
2019-03-29T13:26:26.517Z,101551.70
2019-03-29T13:28:59.044Z,101547.25
2019-03-29T13:31:31.762Z,101539.22
2019-03-29T13:34:04.272Z,101545.31
2019-03-29T13:36:36.760Z,101545.31
2019-03-29T13:39:09.599Z,101538.68
2019-03-29T13:41:42.211Z,101512.67
2019-03-29T13:44:23.774Z,101522.89
2019-03-29T13:46:48.939Z,101522.89
2019-03-29T13:49:21.349Z,101521.50
2019-03-29T13:51:53.825Z,101504.07
2019-03-29T13:54:26.292Z,101511.89
2019-03-29T13:56:59.415Z,101511.26
2019-03-29T13:59:32.145Z,101507.60
2019-03-29T14:02:04.643Z,101502.30
2019-03-29T14:04:37.355Z,101503.91
2019-03-29T14:07:09.893Z,101497.50
2019-03-29T14:09:42.539Z,101493.44
2019-03-29T14:12:15.285Z,101488.92
2019-03-29T14:14:47.766Z,101491.47
2019-03-29T14:17:20.419Z,101492.27
2019-03-29T14:19:52.899Z,101482.83
2019-03-29T14:22:25.838Z,101475.18
2019-03-29T14:24:58.287Z,101469.62
2019-03-29T14:27:31.411Z,101461.86
2019-03-29T14:30:05.310Z,101468.11
2019-03-29T14:32:38.056Z,101469.44
2019-03-29T14:35:10.923Z,101456.66
2019-03-29T14:37:43.329Z,101452.67
2019-03-29T14:40:15.806Z,101447.83
2019-03-29T14:42:48.977Z,101453.50
2019-03-29T14:45:21.479Z,101439.69
2019-03-29T14:47:53.981Z,101444.13
2019-03-29T14:50:26.541Z,101444.60
2019-03-29T14:52:59.232Z,101436.17
2019-03-29T14:55:31.775Z,101436.56
2019-03-29T14:58:04.924Z,101436.48
2019-03-29T15:00:36.017Z,101429.73
2019-03-29T15:03:05.251Z,101425.21
2019-03-29T15:05:37.800Z,101430.05
2019-03-29T15:08:10.345Z,101421.62
2019-03-29T15:10:45.592Z,101423.41
2019-03-29T15:13:17.736Z,101415.84
2019-03-29T15:15:53.311Z,101415.38
2019-03-29T15:18:24.560Z,101411.39
2019-03-29T15:20:57.139Z,101400.19
2019-03-29T15:23:29.628Z,101408.08
2019-03-29T15:26:02.086Z,101405.11
2019-03-29T15:28:37.341Z,101398.00
2019-03-29T15:31:09.496Z,101395.66
2019-03-29T15:33:42.041Z,101398.23
2019-03-29T15:36:15.048Z,101389.30
2019-03-29T15:38:47.530Z,101383.52
2019-03-29T15:41:20.143Z,101379.53
2019-03-29T15:43:52.601Z,101382.30
2019-03-29T15:46:25.969Z,101385.31
2019-03-29T15:48:58.438Z,101380.00
2019-03-29T15:51:30.989Z,101373.36
2019-03-29T15:54:03.406Z,101371.44
2019-03-29T15:56:35.856Z,101370.89
2019-03-29T15:59:08.871Z,101374.88
2019-03-29T16:01:42.100Z,101379.33
2019-03-29T16:04:14.649Z,101376.75
2019-03-29T16:06:47.107Z,101373.16
2019-03-29T16:09:19.592Z,101366.91
2019-03-29T16:11:52.057Z,101372.22
2019-03-29T16:14:24.645Z,101374.95
2019-03-29T16:16:58.025Z,101368.42
2019-03-29T16:19:30.595Z,101369.36
2019-03-29T16:22:05.882Z,101367.17
2019-03-29T16:24:37.361Z,101367.64
2019-03-29T16:27:09.857Z,101369.15
2019-03-29T16:29:42.360Z,101368.29
2019-03-29T16:32:15.873Z,101367.89
2019-03-29T16:34:50.707Z,101370.16
2019-03-29T16:37:22.635Z,101365.78
2019-03-29T16:39:55.095Z,101364.92
2019-03-29T16:42:27.914Z,101361.98
2019-03-29T16:45:00.557Z,101361.20
2019-03-29T16:47:33.612Z,101362.06
2019-03-29T16:50:06.557Z,101360.91
2019-03-29T16:52:39.058Z,101363.17
2019-03-29T16:55:13.578Z,101364.11
2019-03-29T16:57:45.836Z,101358.87
2019-03-29T17:00:16.611Z,101369.10
2019-03-29T17:02:46.653Z,101359.89
2019-03-29T17:05:19.257Z,101369.25
2019-03-29T17:07:51.772Z,101364.12
2019-03-29T17:10:24.310Z,101371.30
2019-03-29T17:12:57.506Z,101369.30
2019-03-29T17:15:30.001Z,101365.86
2019-03-29T17:18:03.292Z,101360.73
2019-03-29T17:20:35.810Z,101360.88
2019-03-29T17:23:08.916Z,101361.98
2019-03-29T17:25:41.534Z,101365.76
2019-03-29T17:28:15.266Z,101366.01
2019-03-29T17:30:56.456Z,101361.31
2019-03-29T17:33:29.706Z,101361.56
2019-03-29T17:36:02.317Z,101361.81
2019-03-29T17:38:35.186Z,101364.17
2019-03-29T17:41:07.822Z,101361.73
2019-03-29T17:43:40.349Z,101362.45
2019-03-29T17:46:16.606Z,101351.22
2019-03-29T17:48:47.281Z,101362.48
2019-03-29T17:51:20.855Z,101365.77
2019-03-29T17:53:53.485Z,101365.15
2019-03-29T17:56:26.157Z,101362.73
2019-03-29T17:58:58.762Z,101364.27
2019-03-29T18:01:31.677Z,101362.80
2019-03-29T18:04:04.271Z,101362.17
2019-03-29T18:06:37.577Z,101362.84
2019-03-29T18:09:10.551Z,101361.86
2019-03-29T18:11:43.198Z,101362.92
2019-03-29T18:14:15.763Z,101367.59
2019-03-29T18:16:48.321Z,101360.45
2019-03-29T18:19:21.036Z,101366.05
2019-03-29T18:21:54.338Z,101364.09
2019-03-29T18:24:26.925Z,101363.92
2019-03-29T18:26:59.489Z,101368.98
2019-03-29T18:29:31.988Z,101369.75
2019-03-29T18:32:04.806Z,101366.46
2019-03-29T18:34:41.445Z,101364.11
2019-03-29T18:37:13.234Z,101359.10
2019-03-29T18:39:46.522Z,101355.87
2019-03-29T18:42:20.096Z,101359.64
2019-03-29T18:44:52.686Z,101356.85
2019-03-29T18:47:25.311Z,101363.20
2019-03-29T18:49:57.843Z,101366.99
2019-03-29T18:52:31.021Z,101360.69
2019-03-29T18:55:03.591Z,101368.81
2019-03-29T18:57:36.169Z,101371.67
2019-03-29T19:00:10.032Z,101366.14
2019-03-29T19:02:42.614Z,101371.65
2019-03-29T19:05:25.230Z,101370.59
2019-03-29T19:07:58.593Z,101366.84
2019-03-29T19:10:31.190Z,101374.99
2019-03-29T19:13:03.774Z,101369.91
2019-03-29T19:15:36.370Z,101371.30
2019-03-29T19:18:08.991Z,101369.78
2019-03-29T19:20:41.812Z,101366.42
2019-03-29T19:23:15.053Z,101369.65
2019-03-29T19:25:47.662Z,101365.43
2019-03-29T19:28:21.463Z,101366.09
2019-03-29T19:30:53.990Z,101366.77
2019-03-29T19:33:26.703Z,101367.28
2019-03-29T19:35:59.309Z,101365.27
2019-03-29T19:38:32.463Z,101361.97
2019-03-29T19:41:05.042Z,101364.91
2019-03-29T19:43:37.605Z,101361.20
2019-03-29T19:46:10.209Z,101357.49
2019-03-29T19:48:42.739Z,101355.62
2019-03-29T19:51:15.351Z,101364.80
2019-03-29T19:53:48.676Z,101368.30
2019-03-29T19:56:22.607Z,101360.00
2019-03-29T19:58:55.529Z,101364.19
2019-03-29T20:01:28.997Z,101357.02
2019-03-29T20:04:01.653Z,101357.46
2019-03-29T20:06:34.162Z,101358.28
2019-03-29T20:09:10.255Z,101356.41
2019-03-29T20:11:43.043Z,101358.06
2019-03-29T20:14:15.761Z,101360.47
2019-03-29T20:16:48.756Z,101362.37
2019-03-29T20:19:21.398Z,101359.87
2019-03-29T20:21:54.400Z,101364.78
2019-03-29T20:24:27.065Z,101358.23
2019-03-29T20:27:00.113Z,101362.73
2019-03-29T20:29:32.810Z,101365.95
2019-03-29T20:32:05.506Z,101363.81
2019-03-29T20:34:38.231Z,101363.53
2019-03-29T20:37:10.933Z,101360.53
2019-03-29T20:39:43.515Z,101359.75
2019-03-29T20:42:17.415Z,101365.66
2019-03-29T20:44:50.076Z,101366.95
2019-03-29T20:47:23.966Z,101371.83
2019-03-29T20:49:56.666Z,101364.05
2019-03-29T20:52:29.388Z,101368.45
2019-03-29T20:55:02.092Z,101364.41
2019-03-29T20:57:35.508Z,101363.75
2019-03-29T21:00:09.340Z,101372.67
2019-03-29T21:02:41.932Z,101371.47
2019-03-29T21:05:14.965Z,101370.64
2019-03-29T21:07:47.879Z,101372.31
2019-03-29T21:10:20.650Z,101366.23
2019-03-29T21:12:53.993Z,101365.74
2019-03-29T21:15:26.626Z,101366.45
2019-03-29T21:17:59.208Z,101362.13
2019-03-29T21:20:31.837Z,101362.50
2019-03-29T21:23:04.597Z,101359.98
2019-03-29T21:25:37.271Z,101356.81
2019-03-29T21:28:10.689Z,101362.44
2019-03-29T21:30:43.425Z,101356.33
2019-03-29T21:33:16.051Z,101355.39
2019-03-29T21:35:48.701Z,101352.48
2019-03-29T21:38:21.384Z,101349.71
2019-03-29T21:40:54.177Z,101352.67
2019-03-29T21:43:27.806Z,101354.77
2019-03-29T21:46:00.341Z,101353.70
2019-03-29T21:48:33.018Z,101348.61
2019-03-29T21:51:05.628Z,101347.33
2019-03-29T21:53:38.331Z,101347.40
2019-03-29T21:56:11.261Z,101346.15
2019-03-29T21:58:44.883Z,101347.52
2019-03-29T22:01:17.745Z,101342.27
2019-03-29T22:03:50.505Z,101342.27
2019-03-29T22:06:23.089Z,101337.98
2019-03-29T22:08:55.888Z,101334.16
2019-03-29T22:11:28.447Z,101336.47
2019-03-29T22:14:01.958Z,101330.92
2019-03-29T22:16:34.459Z,101333.20
2019-03-29T22:19:07.071Z,101336.30
2019-03-29T22:21:39.745Z,101326.69
2019-03-29T22:24:12.580Z,101318.85
2019-03-29T22:26:45.102Z,101316.31
2019-03-29T22:29:17.628Z,101321.66
2019-03-29T22:31:50.774Z,101319.48
2019-03-29T22:34:23.387Z,101313.84
2019-03-29T22:37:17.529Z,101318.86
2019-03-29T22:39:50.249Z,101317.72
2019-03-29T22:42:22.913Z,101318.37
2019-03-29T22:44:57.041Z,101318.49
2019-03-29T22:47:30.376Z,101320.27
2019-03-29T22:50:02.976Z,101315.06
2019-03-29T22:52:35.500Z,101312.55
2019-03-29T22:55:08.661Z,101313.53
2019-03-29T22:57:41.265Z,101311.44
2019-03-29T23:00:28.521Z,101308.37
2019-03-29T23:03:01.468Z,101310.07
2019-03-29T23:05:33.994Z,101310.58
2019-03-29T23:08:06.771Z,101306.75
2019-03-29T23:10:39.324Z,101308.18
2019-03-29T23:13:11.863Z,101306.89
2019-03-29T23:15:44.442Z,101303.45
2019-03-29T23:18:17.332Z,101302.66
2019-03-29T23:20:49.941Z,101298.72
2019-03-29T23:23:22.451Z,101303.98
2019-03-29T23:25:55.039Z,101305.94
2019-03-29T23:28:27.654Z,101303.90
2019-03-29T23:31:01.574Z,101293.12
2019-03-29T23:33:34.610Z,101292.34
2019-03-29T23:36:08.105Z,101287.99
2019-03-29T23:38:41.162Z,101290.95
2019-03-29T23:41:13.852Z,101293.52
2019-03-29T23:43:46.505Z,101292.32
2019-03-29T23:46:19.100Z,101286.69
2019-03-29T23:48:51.968Z,101288.88
2019-03-29T23:51:24.518Z,101287.73
2019-03-29T23:53:57.074Z,101288.75
2019-03-29T23:56:29.603Z,101287.67
2019-03-29T23:59:02.166Z,101295.66
